Time;durP1;ratioP1;P1;durP2;ratioP2;P2;SDS_P1;SDS_P2;PMS_P1;PMS_P2;Temp;Humidity;BMP_temperature;BMP_pressure;BME280_temperature;BME280_humidity;BME280_pressure;Samples;Min_cycle;Max_cycle;Signal;HPM_P1;HPM_P2
2022/08/11 00:01:26;;;;;;;5.93;3.33;;;20.20;99.90;;;;;;5010910;28;20109;-46
2022/08/11 00:03:58;;;;;;;6.25;3.20;;;20.10;99.90;;;;;;4992466;28;20052;-47
2022/08/11 00:06:28;;;;;;;5.13;3.20;;;20.10;99.90;;;;;;5009608;28;20065;-47
2022/08/11 00:08:54;;;;;;;4.68;3.40;;;20.10;99.90;;;;;;5009818;28;20383;-46
2022/08/11 00:11:21;;;;;;;6.57;3.53;;;20.00;99.90;;;;;;4992115;28;20113;-47
2022/08/11 00:13:49;;;;;;;5.07;3.30;;;20.00;99.90;;;;;;4991296;28;20092;-43
2022/08/11 00:16:20;;;;;;;5.25;3.20;;;20.00;99.90;;;;;;4991355;28;20104;-48
2022/08/11 00:18:50;;;;;;;5.35;3.22;;;19.90;99.90;;;;;;5012665;28;20084;-44
2022/08/11 00:21:17;;;;;;;6.03;3.10;;;19.90;99.90;;;;;;5012886;28;20103;-47
2022/08/11 00:23:46;;;;;;;5.07;3.08;;;19.80;99.90;;;;;;5006867;28;20077;-43
2022/08/11 00:26:14;;;;;;;5.72;3.50;;;19.80;99.90;;;;;;5014742;28;20042;-45
2022/08/11 00:28:40;;;;;;;7.00;3.20;;;19.70;99.90;;;;;;5013405;28;20038;-45
2022/08/11 00:31:25;;;;;;;5.00;3.33;;;19.70;99.90;;;;;;5014803;28;20038;-45
2022/08/11 00:33:51;;;;;;;6.30;3.70;;;19.70;99.90;;;;;;4995182;28;20054;-45
2022/08/11 00:36:19;;;;;;;6.43;3.55;;;19.60;99.90;;;;;;4994559;28;20414;-47
2022/08/11 00:38:50;;;;;;;6.18;3.35;;;19.60;99.90;;;;;;4994818;28;20100;-45
2022/08/11 00:41:54;;;;;;;6.03;3.88;;;19.60;99.90;;;;;;4995081;28;20070;-46
2022/08/11 00:44:28;;;;;;;5.57;3.70;;;19.60;99.90;;;;;;4953529;29;20338;-46
2022/08/11 00:47:18;;;;;;;5.20;3.60;;;19.50;99.90;;;;;;4953649;29;20306;-45
2022/08/11 00:50:16;;;;;;;5.40;3.70;;;19.40;99.90;;;;;;4994731;28;20222;-45
2022/08/11 00:53:04;;;;;;;6.35;3.88;;;19.30;99.90;;;;;;4999107;28;20465;-43
2022/08/11 00:56:05;;;;;;;5.72;4.15;;;19.20;99.90;;;;;;5013786;28;20073;-45
2022/08/11 00:58:49;;;;;;;5.10;3.92;;;19.30;99.90;;;;;;5013991;28;20034;-45
2022/08/11 01:01:19;;;;;;;6.07;3.60;;;19.10;99.90;;;;;;5014176;28;20042;-48
2022/08/11 01:03:48;;;;;;;6.47;3.63;;;19.20;99.90;;;;;;5014301;28;20046;-48
2022/08/11 01:06:37;;;;;;;5.20;3.60;;;19.20;99.90;;;;;;5013916;28;20123;-46
2022/08/11 01:09:30;;;;;;;5.72;3.92;;;19.10;99.90;;;;;;5013766;28;20045;-45
2022/08/11 01:12:17;;;;;;;6.70;3.97;;;19.10;99.90;;;;;;5013894;28;20500;-46
2022/08/11 01:15:17;;;;;;;5.40;4.00;;;19.00;99.90;;;;;;5012917;28;20037;-45
2022/08/11 01:18:10;;;;;;;5.15;3.58;;;18.90;99.90;;;;;;5013784;28;20125;-49
2022/08/11 01:20:54;;;;;;;7.63;3.92;;;18.90;99.90;;;;;;5013842;28;20037;-46
2022/08/11 01:23:35;;;;;;;8.90;4.20;;;18.90;99.90;;;;;;5012224;28;20054;-47
2022/08/11 01:26:22;;;;;;;6.47;3.85;;;19.00;99.90;;;;;;5012275;28;20052;-45
2022/08/11 01:29:29;;;;;;;5.18;3.67;;;18.80;99.90;;;;;;5010253;28;20058;-46
2022/08/11 01:32:20;;;;;;;5.65;3.97;;;18.70;99.90;;;;;;5012383;28;20038;-47
2022/08/11 01:35:07;;;;;;;4.85;4.00;;;18.60;99.90;;;;;;5003488;28;20117;-47
2022/08/11 01:37:59;;;;;;;6.90;4.10;;;18.70;99.90;;;;;;5012101;28;20084;-45
2022/08/11 01:41:06;;;;;;;7.90;4.50;;;18.60;99.90;;;;;;5012653;28;20060;-48
2022/08/11 01:46:31;;;;;;;6.70;4.20;;;18.60;99.90;;;;;;5008512;28;20410;-45
2022/08/11 01:49:16;;;;;;;5.50;4.03;;;18.60;99.90;;;;;;5012273;28;20124;-45
2022/08/11 01:51:52;;;;;;;6.35;4.10;;;18.50;99.90;;;;;;4994422;28;20106;-49
2022/08/11 01:54:30;;;;;;;6.28;4.45;;;18.40;99.90;;;;;;5011089;28;20034;-44
2022/08/11 01:57:36;;;;;;;6.68;3.83;;;18.40;99.90;;;;;;5001982;28;20038;-47
2022/08/11 02:00:21;;;;;;;6.78;4.13;;;18.60;99.90;;;;;;4991680;28;20073;-47
2022/08/11 02:02:58;;;;;;;6.35;4.03;;;18.70;99.90;;;;;;4993529;28;20117;-46
2022/08/11 02:05:43;;;;;;;5.68;4.03;;;18.60;99.90;;;;;;4993628;28;20485;-44
2022/08/11 02:08:23;;;;;;;8.20;4.35;;;18.60;99.90;;;;;;4993287;28;20081;-45
2022/08/11 02:14:10;;;;;;;6.47;4.32;;;18.40;99.90;;;;;;4993653;28;20057;-44
2022/08/11 02:17:06;;;;;;;10.02;4.90;;;18.40;99.90;;;;;;4993049;28;20030;-46
2022/08/11 02:26:06;;;;;;;7.05;4.28;;;18.30;99.90;;;;;;4994897;28;20062;-46
2022/08/11 02:28:50;;;;;;;6.32;4.03;;;18.40;99.90;;;;;;5012543;28;20065;-47
2022/08/11 02:35:00;;;;;;;6.25;4.10;;;18.40;99.90;;;;;;4989009;28;20088;-47
2022/08/11 02:37:31;;;;;;;5.95;4.15;;;18.40;99.90;;;;;;5012217;28;20482;-46
2022/08/11 02:39:57;;;;;;;6.45;4.10;;;18.40;99.90;;;;;;4978052;28;21775;-43
2022/08/11 02:42:32;;;;;;;6.45;4.10;;;18.30;99.90;;;;;;4992460;28;20054;-42
2022/08/11 02:45:28;;;;;;;7.32;4.45;;;18.20;99.90;;;;;;5011062;28;20041;-47
2022/08/11 02:51:21;;;;;;;6.43;3.92;;;18.00;99.90;;;;;;5012417;28;20041;-47
2022/08/11 02:53:50;;;;;;;6.18;4.63;;;18.10;99.90;;;;;;5011937;28;20049;-47
2022/08/11 02:56:25;;;;;;;6.20;4.60;;;18.00;99.90;;;;;;5012156;28;20429;-46
2022/08/11 03:01:57;;;;;;;8.38;4.85;;;18.00;99.90;;;;;;4993602;28;20056;-45
2022/08/11 03:04:46;;;;;;;8.00;4.70;;;18.00;99.90;;;;;;4992764;28;20121;-48
2022/08/11 03:07:33;;;;;;;5.50;4.40;;;18.00;99.90;;;;;;5010726;28;20128;-43
2022/08/11 03:10:39;;;;;;;7.07;4.30;;;17.90;99.90;;;;;;5011960;28;20034;-44
2022/08/11 03:19:22;;;;;;;6.00;4.43;;;17.70;99.90;;;;;;5011760;28;20512;-47
2022/08/11 03:21:59;;;;;;;5.97;4.65;;;17.70;99.90;;;;;;5010912;28;20591;-48
2022/08/11 03:24:43;;;;;;;8.93;4.93;;;17.70;99.90;;;;;;5011519;28;20048;-46
2022/08/11 03:27:30;;;;;;;7.60;5.10;;;17.80;99.90;;;;;;5011371;28;20033;-47
2022/08/11 03:30:18;;;;;;;7.88;4.75;;;17.80;99.90;;;;;;5011718;28;20276;-47
2022/08/11 03:36:27;;;;;;;6.63;5.20;;;17.70;99.90;;;;;;5011190;28;20148;-45
2022/08/11 03:39:09;;;;;;;6.85;5.10;;;17.70;99.90;;;;;;5010149;28;20042;-45
2022/08/11 03:41:44;;;;;;;7.43;5.63;;;17.70;99.90;;;;;;5010950;28;20034;-46
2022/08/11 03:44:34;;;;;;;7.38;5.13;;;17.70;99.90;;;;;;5010185;28;20059;-46
2022/08/11 03:47:24;;;;;;;8.90;5.63;;;17.60;99.90;;;;;;5010817;28;20096;-43
2022/08/11 03:49:59;;;;;;;7.43;5.40;;;17.70;99.90;;;;;;5011158;28;20042;-43
2022/08/11 03:52:37;;;;;;;6.50;5.50;;;17.70;99.90;;;;;;5009595;28;20168;-46
2022/08/11 03:55:46;;;;;;;7.53;5.57;;;17.60;99.90;;;;;;5011437;28;20034;-48
2022/08/11 03:58:30;;;;;;;7.90;5.60;;;17.60;99.90;;;;;;5010945;28;20061;-43
2022/08/11 04:01:14;;;;;;;;;;;17.60;99.90;;;;;;5011307;28;20056;-48
2022/08/11 04:03:57;;;;;;;8.15;5.85;;;17.60;99.90;;;;;;5010951;28;20123;-45
2022/08/11 04:06:39;;;;;;;9.50;5.80;;;17.50;99.90;;;;;;4992467;28;20441;-47
2022/08/11 04:09:45;;;;;;;7.43;5.63;;;17.40;99.90;;;;;;5009729;28;20281;-46
2022/08/11 04:12:48;;;;;;;9.02;5.88;;;17.50;99.90;;;;;;5011128;28;20103;-45
2022/08/11 04:18:38;;;;;;;9.93;5.88;;;17.40;99.90;;;;;;4991487;28;20061;-45
2022/08/11 04:21:43;;;;;;;7.85;5.90;;;17.30;99.90;;;;;;4991190;28;20086;-48
2022/08/11 04:24:18;;;;;;;9.32;6.00;;;17.30;99.90;;;;;;5009406;28;20092;-43
2022/08/11 04:26:50;;;;;;;9.20;6.50;;;17.30;99.90;;;;;;4992090;28;20034;-46
2022/08/11 04:29:46;;;;;;;7.68;5.90;;;17.30;99.90;;;;;;5008617;28;20038;-47
2022/08/11 04:32:35;;;;;;;7.40;6.28;;;17.40;99.90;;;;;;5010977;28;20448;-45
2022/08/11 04:35:56;;;;;;;9.85;6.15;;;17.40;99.90;;;;;;4996748;28;20034;-45
2022/08/11 04:39:00;;;;;;;10.25;6.80;;;17.30;99.90;;;;;;4968118;28;20486;-46
2022/08/11 04:43:19;;;;;;;7.75;5.95;;;17.40;99.90;;;;;;5009179;28;20081;-47
2022/08/11 04:45:05;;;;;;;10.88;6.30;;;17.40;99.90;;;;;;5010386;28;20053;-48
2022/08/11 05:03:10;;;;;;;10.60;6.82;;;17.40;99.90;;;;;;5009272;28;20085;-46
2022/08/11 05:06:00;;;;;;;8.13;5.90;;;17.30;99.90;;;;;;4979923;28;20133;-45
2022/08/11 05:08:59;;;;;;;10.18;6.88;;;17.50;99.90;;;;;;5014369;28;20453;-49
2022/08/11 05:11:49;;;;;;;10.20;6.90;;;17.60;99.90;;;;;;5014191;28;20041;-43
2022/08/11 05:37:28;;;;;;;9.85;6.38;;;18.00;99.90;;;;;;5013079;28;20095;-47
2022/08/11 05:56:49;;;;;;;10.75;6.35;;;18.40;99.90;;;;;;4993958;28;20049;-48
2022/08/11 05:59:17;;;;;;;10.20;5.95;;;18.50;99.90;;;;;;5012667;28;20121;-49
2022/08/11 06:01:43;;;;;;;8.85;5.85;;;18.50;99.90;;;;;;5003165;28;20038;-42
2022/08/11 06:04:20;;;;;;;9.70;6.25;;;18.50;99.90;;;;;;4993485;28;20050;-45
2022/08/11 06:06:50;;;;;;;9.50;6.72;;;18.40;99.90;;;;;;5012642;28;20042;-46
2022/08/11 06:09:24;;;;;;;7.63;5.72;;;18.50;99.90;;;;;;5013154;28;20034;-45
2022/08/11 06:11:50;;;;;;;8.00;6.40;;;18.60;99.90;;;;;;5013141;28;20053;-44
2022/08/11 06:14:18;;;;;;;8.90;6.30;;;18.60;99.90;;;;;;5012598;28;20069;-46
2022/08/11 06:16:48;;;;;;;9.05;5.93;;;18.60;99.90;;;;;;5011783;28;20050;-46
2022/08/11 06:19:15;;;;;;;8.23;6.00;;;18.70;99.90;;;;;;5012704;28;20095;-44
2022/08/11 06:21:46;;;;;;;8.95;6.60;;;18.60;99.90;;;;;;4993741;28;20137;-45
2022/08/11 06:24:13;;;;;;;8.55;6.47;;;18.70;99.90;;;;;;5012489;28;20038;-46
2022/08/11 06:26:47;;;;;;;8.82;5.88;;;18.70;99.90;;;;;;5012374;28;20037;-47
2022/08/11 06:29:17;;;;;;;8.63;6.60;;;18.70;99.90;;;;;;5012079;28;20465;-46
2022/08/11 06:31:58;;;;;;;10.63;6.10;;;18.80;99.90;;;;;;5012259;28;20065;-51
2022/08/11 06:34:45;;;;;;;8.82;6.50;;;18.80;99.90;;;;;;4994334;28;20042;-47
2022/08/11 06:37:35;;;;;;;9.93;6.35;;;18.90;99.90;;;;;;4992480;28;20050;-49
2022/08/11 06:40:38;;;;;;;8.10;5.72;;;19.00;99.90;;;;;;4993117;28;20038;-49
2022/08/11 06:43:23;;;;;;;8.13;5.20;;;19.10;99.90;;;;;;4993198;28;20034;-50
2022/08/11 06:46:06;;;;;;;7.57;5.70;;;19.10;99.90;;;;;;5003712;28;20042;-47
2022/08/11 06:48:33;;;;;;;8.55;5.88;;;19.20;99.90;;;;;;5002760;28;20494;-46
2022/08/11 06:51:13;;;;;;;9.13;5.38;;;19.30;99.90;;;;;;5009614;28;20042;-48
2022/08/11 06:53:48;;;;;;;7.53;5.22;;;19.40;99.90;;;;;;5004921;28;20072;-46
2022/08/11 07:01:57;;;;;;;10.05;5.20;;;19.60;99.90;;;;;;5009214;28;20505;-45
2022/08/11 07:04:38;;;;;;;7.57;5.70;;;19.80;99.90;;;;;;4991535;28;20059;-47
2022/08/11 07:15:58;;;;;;;7.88;4.57;;;20.00;99.90;;;;;;5005932;28;20053;-44
2022/08/11 07:30:01;;;;;;;6.88;4.18;;;20.60;99.90;;;;;;5008927;28;20053;-49
2022/08/11 07:32:36;;;;;;;6.68;3.90;;;20.80;99.90;;;;;;4991445;28;20148;-45
2022/08/11 07:35:12;;;;;;;5.63;3.70;;;20.80;99.90;;;;;;5006667;28;20181;-47
2022/08/11 07:37:42;;;;;;;6.40;4.00;;;20.90;99.90;;;;;;5007814;28;20048;-44
2022/08/11 07:40:08;;;;;;;5.05;3.40;;;21.00;99.90;;;;;;5005725;28;20427;-46
2022/08/11 07:42:34;;;;;;;5.15;2.97;;;21.20;99.90;;;;;;5008801;28;20041;-47
2022/08/11 07:53:20;;;;;;;5.68;2.85;;;21.40;99.90;;;;;;5009697;28;20048;-49
2022/08/11 07:55:49;;;;;;;4.53;2.53;;;21.50;99.90;;;;;;5010187;28;20099;-48
2022/08/11 08:17:51;;;;;;;5.32;1.90;;;22.20;99.90;;;;;;5011074;28;20508;-44
2022/08/11 08:20:19;;;;;;;6.47;2.05;;;22.40;99.90;;;;;;5010590;28;20041;-47
2022/08/11 08:22:57;;;;;;;3.90;1.92;;;22.50;99.90;;;;;;5010507;28;20145;-47
2022/08/11 08:25:29;;;;;;;6.55;1.98;;;22.60;99.90;;;;;;5010780;28;20052;-48
2022/08/11 08:27:57;;;;;;;4.22;1.83;;;22.70;99.90;;;;;;5010436;28;20038;-48
2022/08/11 08:30:46;;;;;;;4.00;1.95;;;22.80;99.90;;;;;;5010554;28;20074;-46
2022/08/11 08:33:21;;;;;;;5.72;1.90;;;23.00;99.90;;;;;;5011116;28;20544;-46
2022/08/11 08:36:11;;;;;;;5.90;1.75;;;23.00;99.90;;;;;;4992954;28;20073;-45
2022/08/11 08:38:52;;;;;;;3.40;1.90;;;23.30;99.90;;;;;;4991601;28;20068;-44
2022/08/11 08:41:27;;;;;;;4.07;1.83;;;23.30;99.90;;;;;;4995257;28;20042;-46
2022/08/11 08:43:57;;;;;;;2.97;1.45;;;23.50;99.90;;;;;;5014021;28;20030;-44
2022/08/11 08:46:33;;;;;;;4.07;2.03;;;23.60;99.90;;;;;;5013297;28;20052;-46
2022/08/11 08:49:02;;;;;;;3.95;1.50;;;23.60;99.90;;;;;;5014198;28;20511;-46
2022/08/11 08:51:35;;;;;;;3.40;1.50;;;23.80;99.90;;;;;;5013738;28;20389;-46
2022/08/11 08:54:13;;;;;;;3.80;1.40;;;23.80;99.80;;;;;;5014386;28;20045;-46
2022/08/11 08:56:41;;;;;;;3.60;1.60;;;23.90;99.00;;;;;;5014509;28;20037;-44
2022/08/11 08:59:09;;;;;;;5.03;1.50;;;24.00;99.10;;;;;;5014011;28;20045;-46
2022/08/11 09:01:45;;;;;;;4.85;1.60;;;24.10;98.30;;;;;;5013074;28;20030;-48
2022/08/11 09:04:11;;;;;;;3.45;1.27;;;24.40;98.60;;;;;;5013551;28;20044;-46
2022/08/11 09:06:42;;;;;;;3.00;1.52;;;24.50;99.10;;;;;;5013616;28;20042;-47
2022/08/11 09:09:10;;;;;;;5.45;1.20;;;24.60;98.70;;;;;;5014203;28;20132;-49
2022/08/11 09:11:49;;;;;;;3.75;1.38;;;24.80;98.50;;;;;;5014086;28;20042;-48
2022/08/11 09:14:23;;;;;;;3.00;1.05;;;25.00;97.70;;;;;;5013597;28;20042;-47
2022/08/11 09:16:50;;;;;;;;;;;25.30;97.60;;;;;;5001904;28;20038;-46
2022/08/11 09:19:18;;;;;;;3.28;1.38;;;25.60;95.30;;;;;;5003712;28;20312;-48
2022/08/11 09:26:58;;;;;;;6.07;1.30;;;25.80;94.60;;;;;;4996513;28;20061;-45
2022/08/11 09:27:21;;;;;;;3.97;1.10;;;26.00;94.60;;;;;;5011738;28;20080;-46
2022/08/11 09:29:47;;;;;;;3.67;1.40;;;26.30;94.90;;;;;;5006102;28;20555;-47
2022/08/11 09:32:14;;;;;;;5.72;1.48;;;26.70;94.30;;;;;;5007608;28;20129;-48
2022/08/11 09:34:39;;;;;;;2.38;1.13;;;26.70;93.00;;;;;;5013007;28;20448;-46
2022/08/11 09:45:24;;;;;;;2.63;0.82;;;27.20;91.90;;;;;;5013021;28;20048;-48
2022/08/11 09:47:50;;;;;;;5.32;1.08;;;27.20;90.50;;;;;;5011579;28;20484;-45
2022/08/11 09:50:17;;;;;;;2.20;0.90;;;27.40;90.10;;;;;;5012085;28;20053;-47
2022/08/11 09:52:44;;;;;;;3.40;1.10;;;27.50;91.20;;;;;;5011626;28;20638;-46
2022/08/11 09:55:13;;;;;;;6.43;1.25;;;27.50;87.00;;;;;;5012073;28;20422;-45
2022/08/11 10:00:29;;;;;;;5.40;1.08;;;27.60;85.30;;;;;;5011395;28;20065;-47
2022/08/11 10:02:56;;;;;;;4.15;1.45;;;27.70;88.10;;;;;;5013053;28;20469;-47
2022/08/11 10:08:11;;;;;;;3.45;1.23;;;27.90;85.60;;;;;;5011734;28;20049;-47
2022/08/11 10:10:38;;;;;;;3.45;1.45;;;27.80;85.20;;;;;;5011956;28;20034;-47
2022/08/11 10:13:10;;;;;;;6.22;1.67;;;28.00;86.70;;;;;;5012462;28;20057;-46
2022/08/11 10:15:37;;;;;;;5.10;1.70;;;28.10;83.00;;;;;;5012717;28;20477;-45
2022/08/11 10:18:41;;;;;;;3.53;1.50;;;28.00;83.40;;;;;;5012044;28;20045;-46
2022/08/11 10:21:27;;;;;;;3.55;1.60;;;28.20;80.70;;;;;;4991775;28;20573;-47
2022/08/11 10:27:02;;;;;;;3.38;1.38;;;28.00;82.00;;;;;;4992263;28;20049;-46
2022/08/11 10:35:13;;;;;;;3.75;1.38;;;28.30;81.60;;;;;;4991744;28;20517;-46
2022/08/11 10:37:40;;;;;;;4.72;1.60;;;28.40;81.40;;;;;;4990956;28;20054;-45
2022/08/11 10:40:07;;;;;;;3.20;1.27;;;28.40;82.40;;;;;;4985511;28;20101;-50
2022/08/11 10:48:05;;;;;;;5.90;1.40;;;28.60;80.40;;;;;;4991357;28;20046;-47
2022/08/11 10:58:50;;;;;;;4.50;1.13;;;28.80;80.30;;;;;;4989763;28;20513;-46
2022/08/11 11:01:24;;;;;;;2.85;1.30;;;29.10;81.00;;;;;;4990088;28;20045;-47
2022/08/11 11:03:57;;;;;;;4.72;1.40;;;29.20;79.40;;;;;;4989522;28;20126;-49
2022/08/11 11:06:27;;;;;;;2.97;1.30;;;29.20;78.10;;;;;;4988272;28;20058;-46
2022/08/11 11:09:31;;;;;;;2.83;1.20;;;29.30;78.10;;;;;;4990742;28;20048;-46
2022/08/11 11:17:55;;;;;;;3.03;1.20;;;29.60;79.00;;;;;;4990924;28;20057;-49
2022/08/11 11:20:37;;;;;;;2.67;1.10;;;29.70;74.60;;;;;;4990989;28;20143;-47
2022/08/11 11:23:25;;;;;;;7.57;2.42;;;29.80;75.00;;;;;;4988075;28;20051;-44
2022/08/11 11:26:26;;;;;;;3.65;1.67;;;30.00;75.00;;;;;;4989905;28;20100;-50
2022/08/11 11:29:19;;;;;;;3.38;1.23;;;30.00;74.80;;;;;;4990050;28;20450;-47
2022/08/11 11:32:06;;;;;;;4.57;1.38;;;30.10;75.50;;;;;;4989841;28;20054;-45
2022/08/11 11:34:49;;;;;;;2.33;1.10;;;30.40;74.30;;;;;;4988359;28;20034;-46
2022/08/11 11:37:16;;;;;;;3.55;1.33;;;30.50;73.80;;;;;;4990255;28;20128;-47
2022/08/11 11:39:42;;;;;;;3.45;1.10;;;30.60;76.30;;;;;;4988866;28;20037;-47
2022/08/11 11:42:09;;;;;;;4.60;1.25;;;30.60;74.10;;;;;;4989962;28;20116;-49
2022/08/11 11:44:42;;;;;;;2.42;1.20;;;30.60;75.60;;;;;;4990722;28;20042;-48
2022/08/11 11:47:10;;;;;;;3.47;1.20;;;30.60;74.30;;;;;;4990337;28;20046;-47
2022/08/11 11:49:39;;;;;;;2.25;0.82;;;30.70;74.20;;;;;;4989617;28;20042;-48
2022/08/11 11:52:07;;;;;;;2.53;0.95;;;30.80;73.30;;;;;;4989506;28;20382;-47
2022/08/11 11:54:35;;;;;;;3.80;1.10;;;31.00;72.90;;;;;;4990781;28;20177;-49
2022/08/11 12:02:36;;;;;;;4.18;0.98;;;31.20;71.60;;;;;;4990794;28;20049;-47
2022/08/11 12:05:04;;;;;;;4.32;1.10;;;31.30;72.70;;;;;;4987820;28;20478;-47
2022/08/11 12:10:16;;;;;;;2.35;0.82;;;31.50;71.70;;;;;;4987992;28;20065;-47
2022/08/11 12:15:27;;;;;;;4.20;0.88;;;31.70;70.80;;;;;;4989714;28;20394;-47
2022/08/11 12:17:55;;;;;;;5.40;0.98;;;31.90;71.50;;;;;;4991356;28;20069;-44
2022/08/11 12:20:21;;;;;;;4.35;0.80;;;32.00;70.60;;;;;;4991437;28;20115;-46
2022/08/11 12:28:20;;;;;;;2.30;1.00;;;32.10;69.00;;;;;;4969009;28;20046;-47
2022/08/11 12:30:46;;;;;;;3.53;0.90;;;32.20;70.10;;;;;;4966602;28;20078;-49
2022/08/11 12:33:13;;;;;;;2.17;1.00;;;32.20;67.00;;;;;;4966989;28;20104;-46
2022/08/11 12:35:41;;;;;;;1.75;0.80;;;32.30;67.30;;;;;;4970820;28;20078;-47
2022/08/11 12:38:08;;;;;;;1.70;0.70;;;32.10;66.30;;;;;;4969624;28;20051;-48
2022/08/11 12:46:11;;;;;;;2.03;0.93;;;32.50;67.40;;;;;;4969347;28;20086;-48
2022/08/11 12:54:25;;;;;;;1.73;0.80;;;32.60;66.00;;;;;;4969216;28;20141;-46
2022/08/11 13:05:14;;;;;;;3.22;0.80;;;33.20;64.70;;;;;;4968258;28;20110;-46
2022/08/11 13:07:42;;;;;;;1.92;0.90;;;33.40;64.70;;;;;;4966979;28;20038;-50
2022/08/11 13:10:11;;;;;;;3.17;0.93;;;33.50;64.10;;;;;;4966094;28;20046;-46
2022/08/11 13:12:47;;;;;;;2.20;0.90;;;33.40;64.90;;;;;;4969333;28;20494;-48
2022/08/11 13:15:22;;;;;;;2.08;0.77;;;33.60;64.70;;;;;;4968433;28;20035;-49
2022/08/11 13:17:50;;;;;;;3.80;0.95;;;33.50;64.10;;;;;;4967929;28;20550;-48
2022/08/11 13:20:20;;;;;;;4.15;0.90;;;33.70;62.80;;;;;;4968678;28;20465;-47
2022/08/11 13:22:49;;;;;;;2.30;0.80;;;34.00;63.70;;;;;;5005704;28;20115;-47
2022/08/11 13:25:20;;;;;;;2.05;1.00;;;34.10;63.80;;;;;;5008517;28;20124;-48
2022/08/11 13:27:48;;;;;;;2.25;0.98;;;34.20;61.50;;;;;;5010253;28;20475;-46
2022/08/11 13:33:02;;;;;;;3.22;0.80;;;34.40;61.30;;;;;;5009590;28;20048;-47
2022/08/11 13:35:32;;;;;;;1.42;0.75;;;34.40;61.70;;;;;;5009706;28;20038;-46
2022/08/11 13:38:01;;;;;;;2.72;0.90;;;34.50;62.00;;;;;;5011456;28;20038;-46
2022/08/11 13:40:28;;;;;;;3.00;1.00;;;34.50;60.50;;;;;;5011996;28;20041;-46
2022/08/11 13:42:54;;;;;;;4.05;1.00;;;34.60;61.90;;;;;;5011083;28;20050;-49
2022/08/11 13:45:23;;;;;;;1.52;0.80;;;34.70;61.80;;;;;;5010525;28;20403;-51
2022/08/11 13:47:51;;;;;;;4.35;0.93;;;34.90;58.90;;;;;;5012160;28;20474;-48
2022/08/11 13:50:18;;;;;;;2.75;1.00;;;34.80;59.90;;;;;;5012088;28;20030;-50
2022/08/11 13:52:45;;;;;;;1.85;0.80;;;35.10;60.40;;;;;;5011848;28;20045;-49
2022/08/11 13:55:20;;;;;;;4.82;1.00;;;34.90;59.90;;;;;;5010530;28;20048;-48
2022/08/11 13:57:53;;;;;;;1.85;0.77;;;35.20;60.60;;;;;;5011989;28;20042;-49
2022/08/11 14:00:19;;;;;;;2.47;0.80;;;35.50;60.20;;;;;;5012150;28;20041;-47
2022/08/11 14:02:48;;;;;;;3.03;1.02;;;35.00;59.10;;;;;;5010376;28;20061;-48
2022/08/11 14:05:17;;;;;;;2.28;0.85;;;35.30;59.40;;;;;;5003285;28;20125;-47
2022/08/11 14:07:50;;;;;;;2.28;0.90;;;35.20;60.80;;;;;;5009129;28;20042;-48
2022/08/11 14:10:18;;;;;;;2.65;0.77;;;35.70;60.60;;;;;;5008441;28;20100;-47
2022/08/11 14:15:43;;;;;;;2.35;0.98;;;35.50;59.20;;;;;;5010964;28;20060;-48
2022/08/11 14:18:26;;;;;;;2.08;0.70;;;35.60;59.30;;;;;;5011415;28;20040;-47
2022/08/11 14:23:45;;;;;;;1.90;0.88;;;35.50;59.80;;;;;;5010115;28;20045;-47
2022/08/11 14:26:23;;;;;;;4.22;1.00;;;35.50;59.80;;;;;;5010081;28;20076;-50
2022/08/11 14:28:54;;;;;;;1.67;0.80;;;35.70;59.70;;;;;;5008911;28;20135;-47
2022/08/11 14:31:24;;;;;;;1.67;0.70;;;35.90;58.40;;;;;;5009698;28;20042;-47
2022/08/11 14:33:52;;;;;;;3.67;0.85;;;36.00;58.70;;;;;;4992522;28;20493;-48
2022/08/11 14:36:19;;;;;;;3.38;0.90;;;35.60;58.50;;;;;;4990743;28;20034;-48
2022/08/11 14:38:46;;;;;;;3.80;1.00;;;36.00;59.10;;;;;;5010031;28;20590;-49
2022/08/11 14:49:28;;;;;;;4.40;0.80;;;36.60;58.50;;;;;;5010302;28;20041;-50
2022/08/11 14:51:56;;;;;;;2.35;0.90;;;36.40;58.90;;;;;;5010060;28;20489;-49
2022/08/11 14:57:13;;;;;;;1.65;0.70;;;36.60;56.80;;;;;;5010560;28;20421;-48
2022/08/11 14:59:39;;;;;;;3.03;1.08;;;36.20;57.10;;;;;;5009985;28;20042;-48
2022/08/11 15:04:50;;;;;;;6.00;0.80;;;36.60;57.80;;;;;;5009982;28;20147;-52
2022/08/11 15:07:17;;;;;;;4.90;0.90;;;36.90;57.70;;;;;;4990663;28;20101;-48
2022/08/11 15:09:44;;;;;;;1.75;0.90;;;37.20;57.90;;;;;;4992176;28;20042;-47
2022/08/11 15:12:16;;;;;;;5.15;0.98;;;37.10;56.70;;;;;;5007351;28;20393;-47
2022/08/11 15:17:33;;;;;;;3.80;0.90;;;36.80;56.60;;;;;;5010019;28;20099;-47
2022/08/11 15:25:55;;;;;;;4.20;1.20;;;36.80;55.30;;;;;;5010479;28;20037;-48
2022/08/11 15:39:26;;;;;;;1.83;0.70;;;37.30;54.80;;;;;;5010283;28;20132;-46
2022/08/11 15:47:56;;;;;;;2.13;0.90;;;37.80;55.10;;;;;;5011012;28;20056;-50
2022/08/11 15:50:24;;;;;;;2.92;0.70;;;37.40;54.50;;;;;;5009714;28;20544;-48
2022/08/11 15:52:58;;;;;;;3.05;0.90;;;37.60;55.10;;;;;;5009010;28;20046;-50
2022/08/11 15:55:24;;;;;;;3.65;0.70;;;37.40;54.60;;;;;;5010683;28;20049;-48
2022/08/11 16:06:12;;;;;;;3.38;1.00;;;37.70;55.40;;;;;;5001529;28;20104;-47
2022/08/11 16:08:40;;;;;;;3.72;1.00;;;37.90;55.20;;;;;;4997829;28;20050;-46
2022/08/11 16:11:07;;;;;;;6.18;0.90;;;37.70;55.40;;;;;;4981026;28;20038;-46
2022/08/11 16:16:13;;;;;;;;;;;37.70;55.40;;;;;;5011343;28;20045;-51
2022/08/11 16:18:51;;;;;;;4.07;0.88;;;37.70;54.80;;;;;;5010108;28;19917;-48
2022/08/11 16:21:24;;;;;;;2.15;0.80;;;37.80;55.30;;;;;;5009954;28;20089;-49
2022/08/11 16:23:52;;;;;;;2.97;1.00;;;37.80;54.80;;;;;;4991651;28;20073;-46
2022/08/11 16:26:24;;;;;;;3.47;0.80;;;37.70;54.10;;;;;;5009939;28;20549;-46
2022/08/11 16:28:52;;;;;;;1.40;0.68;;;37.80;54.20;;;;;;4992698;28;20061;-50
2022/08/11 16:31:20;;;;;;;2.58;0.93;;;37.80;54.00;;;;;;5008996;28;20038;-48
2022/08/11 16:33:48;;;;;;;3.08;0.88;;;37.80;53.80;;;;;;5009355;28;20108;-46
2022/08/11 16:39:01;;;;;;;3.08;1.00;;;37.70;54.80;;;;;;5006862;28;20046;-47
2022/08/11 16:47:04;;;;;;;2.85;1.02;;;37.00;54.90;;;;;;5008471;28;20053;-52
2022/08/11 16:49:42;;;;;;;1.70;0.90;;;37.00;54.50;;;;;;5005293;28;20044;-47
2022/08/11 16:52:11;;;;;;;2.83;1.00;;;37.10;54.70;;;;;;5007896;28;20446;-50
2022/08/11 16:54:38;;;;;;;3.00;0.90;;;37.00;55.00;;;;;;5000911;28;20037;-47
2022/08/11 17:00:03;;;;;;;3.85;1.08;;;36.90;54.70;;;;;;5001554;28;20057;-48
2022/08/11 17:13:47;;;;;;;4.43;0.90;;;37.40;54.60;;;;;;5011015;28;20053;-48
2022/08/11 17:16:19;;;;;;;3.83;0.88;;;37.20;53.60;;;;;;5010399;28;20045;-46
2022/08/11 17:18:48;;;;;;;1.63;0.70;;;36.70;53.80;;;;;;5010677;28;20038;-48
2022/08/11 17:21:32;;;;;;;3.30;0.80;;;36.00;54.90;;;;;;5009722;28;20058;-48
2022/08/11 17:24:06;;;;;;;4.32;0.98;;;35.20;55.30;;;;;;5010303;28;20128;-50
2022/08/11 17:26:58;;;;;;;4.65;0.80;;;34.80;55.40;;;;;;5008735;28;20038;-47
2022/08/11 17:29:24;;;;;;;2.95;0.90;;;34.60;56.00;;;;;;5007588;28;20073;-47
2022/08/11 17:37:23;;;;;;;4.25;0.80;;;33.50;59.20;;;;;;5008438;28;20088;-50
2022/08/11 17:39:50;;;;;;;3.60;0.80;;;33.20;59.50;;;;;;5009872;28;20382;-46
2022/08/11 17:50:34;;;;;;;3.75;1.20;;;32.20;61.80;;;;;;5010153;28;20052;-45
2022/08/11 18:01:18;;;;;;;2.83;0.82;;;32.00;63.20;;;;;;5009798;28;20049;-48
2022/08/11 18:03:45;;;;;;;5.20;0.90;;;31.90;63.30;;;;;;5009125;28;20054;-47
2022/08/11 18:06:12;;;;;;;2.38;0.93;;;31.70;63.50;;;;;;5010818;28;20111;-49
